Time;durP1;ratioP1;P1;durP2;ratioP2;P2;SDS_P1;SDS_P2;PMS_P1;PMS_P2;Temp;Humidity;BMP_temperature;BMP_pressure;BME280_temperature;BME280_humidity;BME280_pressure;Samples;Min_cycle;Max_cycle;Signal;HPM_P1;HPM_P2
2022/06/27 00:02:23;;;;;;;18.35;2.85;;;14.10;99.70;;;;;;5042756;28;20036;-68
2022/06/27 00:04:49;;;;;;;15.57;2.58;;;14.00;99.90;;;;;;5043153;28;20021;-67
2022/06/27 00:07:15;;;;;;;15.15;2.88;;;14.00;99.90;;;;;;5042917;28;20036;-67
2022/06/27 00:09:41;;;;;;;20.80;2.95;;;14.00;99.90;;;;;;5042267;28;20021;-67
2022/06/27 00:12:08;;;;;;;20.05;2.88;;;13.90;99.90;;;;;;5043768;28;20096;-67
2022/06/27 00:14:34;;;;;;;21.38;2.65;;;13.90;99.90;;;;;;5043882;28;20033;-68
2022/06/27 00:17:00;;;;;;;17.92;3.22;;;13.90;99.90;;;;;;5059377;28;20029;-67
2022/06/27 00:19:25;;;;;;;17.13;3.35;;;13.90;99.90;;;;;;5058944;28;20320;-67
2022/06/27 00:21:51;;;;;;;15.82;2.20;;;13.90;99.90;;;;;;5043283;28;20044;-67
2022/06/27 00:24:17;;;;;;;16.52;2.53;;;13.90;99.90;;;;;;5043884;28;20021;-68
2022/06/27 00:26:42;;;;;;;17.88;2.65;;;13.90;99.90;;;;;;5043740;28;20032;-67
2022/06/27 00:29:08;;;;;;;13.57;2.53;;;13.80;99.90;;;;;;5059247;28;20080;-67
2022/06/27 00:31:34;;;;;;;16.20;2.78;;;13.70;99.90;;;;;;5042488;28;20071;-67
2022/06/27 00:34:00;;;;;;;22.15;2.67;;;13.70;99.90;;;;;;5042449;28;20018;-67
2022/06/27 00:36:25;;;;;;;16.40;2.50;;;13.70;99.90;;;;;;5043496;28;20028;-67
2022/06/27 00:38:51;;;;;;;18.00;2.15;;;13.80;99.90;;;;;;5042883;28;20021;-67
2022/06/27 00:41:17;;;;;;;14.65;2.03;;;13.80;99.90;;;;;;5042306;28;20028;-67
2022/06/27 00:43:43;;;;;;;13.45;2.40;;;13.70;99.90;;;;;;5043805;28;20220;-67
2022/06/27 00:46:10;;;;;;;18.77;2.08;;;13.80;99.90;;;;;;5041860;28;20033;-67
2022/06/27 00:48:35;;;;;;;12.65;2.00;;;13.90;99.90;;;;;;5042489;28;20236;-67
2022/06/27 00:51:01;;;;;;;19.30;1.92;;;13.80;99.90;;;;;;5041161;28;20096;-67
2022/06/27 00:53:28;;;;;;;13.80;2.85;;;13.90;99.90;;;;;;5041601;28;20022;-67
2022/06/27 00:55:55;;;;;;;14.77;2.38;;;13.90;99.90;;;;;;5043516;28;20025;-67
2022/06/27 00:58:20;;;;;;;14.40;2.20;;;13.90;99.90;;;;;;5041782;28;20301;-67
2022/06/27 01:00:46;;;;;;;12.55;2.00;;;13.90;99.90;;;;;;5061903;28;20032;-67
2022/06/27 01:03:12;;;;;;;13.48;2.25;;;13.90;99.90;;;;;;5047500;28;20024;-67
2022/06/27 01:05:37;;;;;;;19.85;2.40;;;14.00;99.90;;;;;;5063064;28;20316;-67
2022/06/27 01:08:03;;;;;;;21.10;2.25;;;14.00;99.90;;;;;;5062893;28;20317;-67
2022/06/27 01:10:29;;;;;;;17.20;1.83;;;14.00;99.90;;;;;;5046768;28;20332;-67
2022/06/27 01:12:56;;;;;;;16.88;2.28;;;14.00;99.90;;;;;;5047241;28;20044;-67
2022/06/27 01:15:23;;;;;;;16.48;2.33;;;14.00;99.90;;;;;;5045919;28;20096;-67
2022/06/27 01:17:49;;;;;;;16.00;1.83;;;13.90;99.90;;;;;;5046427;28;20025;-67
2022/06/27 01:20:15;;;;;;;15.00;2.15;;;13.90;99.90;;;;;;5045091;28;20037;-67
2022/06/27 01:22:41;;;;;;;12.98;1.52;;;13.90;99.90;;;;;;5047279;28;20013;-67
2022/06/27 01:25:08;;;;;;;7.60;1.20;;;13.90;99.90;;;;;;5046592;28;20366;-67
2022/06/27 01:27:33;;;;;;;10.40;1.60;;;13.90;99.90;;;;;;5045851;28;20021;-67
2022/06/27 01:30:01;;;;;;;10.25;1.40;;;13.90;99.80;;;;;;5046323;28;20205;-67
2022/06/27 01:32:27;;;;;;;9.70;1.80;;;14.00;99.70;;;;;;5062417;28;20044;-67
2022/06/27 01:34:52;;;;;;;8.95;1.25;;;14.10;99.50;;;;;;5046611;28;20344;-67
2022/06/27 01:37:18;;;;;;;12.50;1.60;;;14.10;99.40;;;;;;5046500;28;20029;-67
2022/06/27 01:39:44;;;;;;;17.10;1.88;;;14.00;99.50;;;;;;5046298;28;20017;-67
2022/06/27 01:42:09;;;;;;;11.73;1.60;;;14.00;99.70;;;;;;5046781;28;20247;-67
2022/06/27 01:44:35;;;;;;;12.32;1.90;;;14.00;99.60;;;;;;5045679;28;20113;-67
2022/06/27 01:47:04;;;;;;;7.20;1.33;;;14.10;99.60;;;;;;5046233;28;20216;-67
2022/06/27 01:49:31;;;;;;;7.65;1.40;;;14.10;99.40;;;;;;5045692;28;20117;-67
2022/06/27 01:51:58;;;;;;;8.10;1.52;;;14.20;99.30;;;;;;5044939;28;20033;-67
2022/06/27 01:54:25;;;;;;;12.68;2.10;;;14.30;99.00;;;;;;5046752;28;20017;-67
2022/06/27 01:56:51;;;;;;;10.95;1.52;;;14.20;99.20;;;;;;5045550;28;20028;-67
2022/06/27 01:59:20;;;;;;;10.88;1.60;;;14.20;99.10;;;;;;5045247;28;20259;-67
2022/06/27 02:01:46;;;;;;;9.02;1.05;;;14.20;99.10;;;;;;5044688;28;20021;-67
2022/06/27 02:04:13;;;;;;;9.27;1.00;;;14.20;99.10;;;;;;5061129;28;20239;-67
2022/06/27 02:06:40;;;;;;;4.18;1.10;;;14.30;99.20;;;;;;5045010;28;20233;-67
2022/06/27 02:09:08;;;;;;;12.02;1.60;;;14.30;99.00;;;;;;5045123;28;20342;-67
2022/06/27 02:11:34;;;;;;;4.50;1.20;;;14.30;99.10;;;;;;5060742;28;20036;-67
2022/06/27 02:14:00;;;;;;;8.60;1.63;;;14.30;99.10;;;;;;5045724;28;20320;-67
2022/06/27 02:16:26;;;;;;;8.73;1.50;;;14.40;98.90;;;;;;5046211;28;20096;-67
2022/06/27 02:18:52;;;;;;;8.25;1.40;;;14.40;99.00;;;;;;5061059;28;20228;-67
2022/06/27 02:21:20;;;;;;;8.10;1.50;;;14.40;98.90;;;;;;5045162;28;20069;-67
2022/06/27 02:23:47;;;;;;;5.38;1.27;;;14.50;98.80;;;;;;5045513;28;20320;-67
2022/06/27 02:26:14;;;;;;;6.60;0.90;;;14.60;98.80;;;;;;5061630;28;20025;-67
2022/06/27 02:28:40;;;;;;;8.18;1.02;;;14.60;98.70;;;;;;5061608;28;20028;-67
2022/06/27 02:31:08;;;;;;;7.43;1.30;;;14.60;98.80;;;;;;5060771;28;20124;-67
2022/06/27 02:33:36;;;;;;;5.38;0.85;;;14.60;98.90;;;;;;5044089;28;20029;-67
2022/06/27 02:36:04;;;;;;;9.05;0.93;;;14.60;99.10;;;;;;5061203;28;20232;-67
2022/06/27 02:38:30;;;;;;;8.60;1.10;;;14.60;99.10;;;;;;5027636;28;20232;-67
2022/06/27 02:40:59;;;;;;;7.43;1.00;;;14.60;99.20;;;;;;5045486;28;20036;-67
2022/06/27 02:43:28;;;;;;;9.80;1.08;;;14.60;99.30;;;;;;5043976;28;20144;-67
2022/06/27 02:45:55;;;;;;;5.53;0.80;;;14.50;99.50;;;;;;5044968;28;20084;-67
2022/06/27 02:48:24;;;;;;;7.68;0.90;;;14.50;99.60;;;;;;5023738;28;20037;-67
2022/06/27 02:50:54;;;;;;;5.15;1.20;;;14.50;99.40;;;;;;5039154;28;20058;-67
2022/06/27 02:53:25;;;;;;;5.15;1.02;;;14.50;99.30;;;;;;5024033;28;20018;-67
2022/06/27 02:55:55;;;;;;;2.92;0.60;;;14.50;99.30;;;;;;5057573;28;20144;-67
2022/06/27 02:58:33;;;;;;;3.22;1.00;;;14.60;99.30;;;;;;5025342;28;20264;-67
2022/06/27 03:01:02;;;;;;;9.43;0.88;;;14.60;99.30;;;;;;5040198;28;20034;-67
2022/06/27 03:03:32;;;;;;;6.93;0.82;;;14.60;99.20;;;;;;5056940;28;20018;-67
2022/06/27 03:06:04;;;;;;;7.20;1.08;;;14.60;99.30;;;;;;5056400;28;20030;-67
2022/06/27 03:08:47;;;;;;;4.63;1.02;;;14.60;99.30;;;;;;5056812;28;20024;-67
2022/06/27 03:11:15;;;;;;;6.72;0.95;;;14.60;99.40;;;;;;5024794;28;20321;-67
2022/06/27 03:13:42;;;;;;;4.30;0.60;;;14.60;99.50;;;;;;5024929;28;20029;-67
2022/06/27 03:16:09;;;;;;;6.75;1.20;;;14.60;99.60;;;;;;5040751;28;20221;-67
2022/06/27 03:18:35;;;;;;;5.88;1.33;;;14.70;99.90;;;;;;5023777;28;20088;-67
2022/06/27 03:21:01;;;;;;;4.18;0.65;;;14.60;99.90;;;;;;5023788;28;20025;-67
2022/06/27 03:23:27;;;;;;;8.70;0.98;;;14.60;99.90;;;;;;5024821;28;20034;-67
2022/06/27 03:25:54;;;;;;;4.13;0.85;;;14.50;99.90;;;;;;5057075;28;20041;-67
2022/06/27 03:28:20;;;;;;;5.03;0.80;;;14.40;99.90;;;;;;5024770;28;20014;-67
2022/06/27 03:30:46;;;;;;;5.40;1.23;;;14.40;99.90;;;;;;5025077;28;20034;-67
2022/06/27 03:33:12;;;;;;;9.05;1.30;;;14.30;99.90;;;;;;5023475;28;20028;-67
2022/06/27 03:35:38;;;;;;;5.38;1.08;;;14.30;99.90;;;;;;5023133;28;20211;-67
2022/06/27 03:38:04;;;;;;;6.32;0.95;;;14.40;99.90;;;;;;5024805;28;20029;-67
2022/06/27 03:40:30;;;;;;;9.55;0.98;;;14.40;99.90;;;;;;5059215;28;20029;-67
2022/06/27 03:42:56;;;;;;;8.55;1.23;;;14.30;99.90;;;;;;5044535;28;20020;-67
2022/06/27 03:45:22;;;;;;;4.40;0.80;;;14.40;99.90;;;;;;5043199;28;20296;-67
2022/06/27 03:47:50;;;;;;;5.25;1.02;;;14.40;99.90;;;;;;5043203;28;20037;-67
2022/06/27 03:50:17;;;;;;;5.13;0.82;;;14.30;99.90;;;;;;5058789;28;20082;-67
2022/06/27 03:52:43;;;;;;;5.28;0.60;;;14.30;99.90;;;;;;5058353;28;20028;-67
2022/06/27 03:55:09;;;;;;;5.53;0.80;;;14.30;99.90;;;;;;5044020;28;20029;-67
2022/06/27 03:57:38;;;;;;;6.10;0.93;;;14.20;99.90;;;;;;5043748;28;20021;-68
2022/06/27 04:00:08;;;;;;;5.75;0.82;;;14.20;99.90;;;;;;5044520;28;20021;-67
2022/06/27 04:02:35;;;;;;;6.00;1.08;;;14.20;99.90;;;;;;5043353;28;20040;-67
2022/06/27 04:05:01;;;;;;;4.78;0.70;;;14.20;99.90;;;;;;5042863;28;20115;-67
2022/06/27 04:07:27;;;;;;;4.18;0.82;;;14.20;99.90;;;;;;5043811;28;20088;-67
2022/06/27 04:09:53;;;;;;;4.43;0.65;;;14.20;99.90;;;;;;5043645;28;20029;-66
2022/06/27 04:12:19;;;;;;;6.03;0.60;;;14.20;99.90;;;;;;5042872;28;20079;-67
2022/06/27 04:14:44;;;;;;;6.30;0.80;;;14.20;99.90;;;;;;5044228;28;20025;-66
2022/06/27 04:17:10;;;;;;;4.93;0.70;;;14.20;99.90;;;;;;5042756;28;20022;-66
2022/06/27 04:19:36;;;;;;;5.40;0.45;;;14.10;99.90;;;;;;5043923;28;20323;-66
2022/06/27 04:22:03;;;;;;;3.58;0.70;;;14.20;99.90;;;;;;5058676;28;20342;-67
2022/06/27 04:24:28;;;;;;;7.03;1.00;;;14.30;99.90;;;;;;5042684;28;20167;-67
2022/06/27 04:26:54;;;;;;;5.78;0.70;;;14.30;99.90;;;;;;5044183;28;20304;-66
2022/06/27 04:29:22;;;;;;;3.25;0.63;;;14.30;99.90;;;;;;5042721;28;20033;-66
2022/06/27 04:31:48;;;;;;;6.30;0.80;;;14.30;99.90;;;;;;5042655;28;20033;-66
2022/06/27 04:34:14;;;;;;;5.63;0.68;;;14.20;99.90;;;;;;5041702;28;20032;-67
2022/06/27 04:36:40;;;;;;;3.92;0.63;;;14.10;99.90;;;;;;5043807;28;20093;-67
2022/06/27 04:39:13;;;;;;;5.90;0.65;;;14.20;99.90;;;;;;5041768;28;20021;-66
2022/06/27 04:41:43;;;;;;;2.95;0.80;;;14.20;99.90;;;;;;5043854;28;20327;-67
2022/06/27 04:44:09;;;;;;;6.03;0.80;;;14.20;99.90;;;;;;5042253;28;20056;-66
2022/06/27 04:46:35;;;;;;;7.35;0.80;;;14.30;99.90;;;;;;5043598;28;20247;-67
2022/06/27 04:49:01;;;;;;;1.90;0.63;;;14.30;99.90;;;;;;5041798;28;20054;-67
2022/06/27 04:51:27;;;;;;;4.95;0.73;;;14.30;99.90;;;;;;5058574;28;20036;-67
2022/06/27 04:53:52;;;;;;;4.97;0.95;;;14.40;99.90;;;;;;5041992;28;20100;-66
2022/06/27 04:56:19;;;;;;;7.88;0.70;;;14.40;99.90;;;;;;5042934;28;20083;-67
2022/06/27 04:58:45;;;;;;;4.63;0.55;;;14.40;99.90;;;;;;5042735;28;20282;-65
2022/06/27 05:01:10;;;;;;;4.13;0.63;;;14.40;99.90;;;;;;5058998;28;20030;-66
2022/06/27 05:03:36;;;;;;;4.03;0.70;;;14.40;99.90;;;;;;5042781;28;20028;-66
2022/06/27 05:06:02;;;;;;;4.35;0.57;;;14.40;99.90;;;;;;5043623;28;20029;-65
2022/06/27 05:08:28;;;;;;;5.18;1.08;;;14.40;99.90;;;;;;5043464;28;20024;-66
2022/06/27 05:10:54;;;;;;;4.05;0.70;;;14.40;99.90;;;;;;5041194;28;20049;-65
2022/06/27 05:13:19;;;;;;;6.78;0.80;;;14.40;99.90;;;;;;5041959;28;20315;-65
2022/06/27 05:15:45;;;;;;;6.95;0.95;;;14.40;99.90;;;;;;5043525;28;20025;-66
2022/06/27 05:18:14;;;;;;;7.10;0.80;;;14.30;99.90;;;;;;5040180;28;20344;-66
2022/06/27 05:20:42;;;;;;;2.75;0.68;;;14.30;99.90;;;;;;5037555;28;20217;-66
2022/06/27 05:23:09;;;;;;;4.25;0.60;;;14.30;99.90;;;;;;5041404;28;20381;-66
2022/06/27 05:25:34;;;;;;;2.85;0.60;;;14.30;99.90;;;;;;5041806;28;20029;-66
2022/06/27 05:28:02;;;;;;;3.22;0.50;;;14.40;99.90;;;;;;5058282;28;20028;-66
2022/06/27 05:30:28;;;;;;;2.75;0.77;;;14.40;99.90;;;;;;5057984;28;20030;-66
2022/06/27 05:32:55;;;;;;;8.50;0.60;;;14.40;99.90;;;;;;5043567;28;20022;-66
2022/06/27 05:35:21;;;;;;;5.82;1.05;;;14.40;99.90;;;;;;5041557;28;20029;-66
2022/06/27 05:37:47;;;;;;;2.60;0.77;;;14.50;99.90;;;;;;5042339;28;20057;-66
2022/06/27 05:40:14;;;;;;;5.45;0.60;;;14.40;99.90;;;;;;5042998;28;20093;-66
2022/06/27 05:42:40;;;;;;;6.10;1.95;;;14.40;99.90;;;;;;5042987;28;20375;-66
2022/06/27 05:45:07;;;;;;;6.78;0.73;;;14.40;99.90;;;;;;5043191;28;20033;-66
2022/06/27 05:47:33;;;;;;;3.78;0.70;;;14.50;99.90;;;;;;5046075;28;20018;-66
2022/06/27 05:49:59;;;;;;;6.03;0.90;;;14.50;99.90;;;;;;5046634;28;20099;-67
2022/06/27 05:52:26;;;;;;;13.30;1.30;;;14.50;99.90;;;;;;5047023;28;20025;-67
2022/06/27 05:54:52;;;;;;;11.73;1.08;;;14.40;99.90;;;;;;5060452;28;20025;-66
2022/06/27 05:57:19;;;;;;;10.00;1.23;;;14.40;99.90;;;;;;5046534;28;20247;-66
2022/06/27 05:59:45;;;;;;;10.93;0.93;;;14.40;99.90;;;;;;5046225;28;20097;-66
2022/06/27 06:02:10;;;;;;;18.05;0.88;;;14.30;99.90;;;;;;5046231;28;20029;-66
2022/06/27 06:04:36;;;;;;;6.25;1.00;;;14.40;99.90;;;;;;5046206;28;20028;-66
2022/06/27 06:07:03;;;;;;;10.68;0.88;;;14.50;99.90;;;;;;5045662;28;20085;-66
2022/06/27 06:09:29;;;;;;;11.18;1.15;;;14.50;99.90;;;;;;5045792;28;20037;-66
2022/06/27 06:11:55;;;;;;;7.95;1.30;;;14.50;99.90;;;;;;5046565;28;20085;-66
2022/06/27 06:14:21;;;;;;;9.15;0.70;;;14.60;99.90;;;;;;5061105;28;20482;-66
2022/06/27 06:16:49;;;;;;;5.95;0.80;;;14.70;99.90;;;;;;5046096;28;20029;-66
2022/06/27 06:19:16;;;;;;;6.25;0.60;;;14.70;99.90;;;;;;5045926;28;20033;-66
2022/06/27 06:21:42;;;;;;;5.85;1.02;;;14.80;99.90;;;;;;5045681;28;20096;-66
2022/06/27 06:24:08;;;;;;;11.80;1.65;;;14.80;99.90;;;;;;5045670;28;20033;-66
2022/06/27 06:26:34;;;;;;;6.75;1.08;;;14.70;99.90;;;;;;5046195;28;20092;-68
2022/06/27 06:29:11;;;;;;;3.30;0.80;;;14.80;99.90;;;;;;5046145;28;20031;-66
2022/06/27 06:31:38;;;;;;;2.30;0.65;;;14.80;99.90;;;;;;5045940;28;20021;-67
2022/06/27 06:34:04;;;;;;;2.60;0.68;;;14.80;99.90;;;;;;5045486;28;20025;-67
2022/06/27 06:36:30;;;;;;;12.63;1.05;;;14.70;99.90;;;;;;5060803;28;20204;-68
2022/06/27 06:38:57;;;;;;;11.60;1.20;;;14.60;99.90;;;;;;5045839;28;20049;-66
2022/06/27 06:41:23;;;;;;;6.97;0.70;;;14.70;99.90;;;;;;5045889;28;20044;-68
2022/06/27 06:43:49;;;;;;;12.40;1.30;;;14.80;99.90;;;;;;5045472;28;20224;-67
2022/06/27 06:46:15;;;;;;;12.23;1.08;;;14.80;99.90;;;;;;5043948;28;20075;-68
2022/06/27 06:48:41;;;;;;;10.35;1.20;;;14.90;99.90;;;;;;5045253;28;20018;-67
2022/06/27 06:51:07;;;;;;;13.35;1.02;;;15.10;99.90;;;;;;5045631;28;20322;-67
2022/06/27 06:53:36;;;;;;;9.25;1.08;;;15.20;99.90;;;;;;5044465;28;20201;-67
2022/06/27 06:56:03;;;;;;;5.35;0.73;;;15.20;99.90;;;;;;5043301;28;20017;-67
2022/06/27 06:58:29;;;;;;;14.63;1.40;;;15.30;99.90;;;;;;5045231;28;20036;-66
2022/06/27 07:00:56;;;;;;;18.83;1.55;;;15.40;99.90;;;;;;5044552;28;20025;-66
2022/06/27 07:03:22;;;;;;;12.80;1.13;;;15.50;99.90;;;;;;5054280;28;20017;-65
2022/06/27 07:05:48;;;;;;;3.20;0.77;;;15.60;99.90;;;;;;5064007;28;20222;-65
2022/06/27 07:08:16;;;;;;;9.68;1.45;;;15.60;99.80;;;;;;5054067;28;20017;-66
2022/06/27 07:10:42;;;;;;;6.95;1.42;;;15.60;99.80;;;;;;5044236;28;20061;-67
2022/06/27 07:13:08;;;;;;;9.18;1.00;;;15.60;99.90;;;;;;5043241;28;20044;-66
2022/06/27 07:15:34;;;;;;;3.90;0.90;;;15.70;99.80;;;;;;5043788;28;20021;-67
2022/06/27 07:18:02;;;;;;;6.28;0.77;;;15.70;99.40;;;;;;5059386;28;20213;-67
2022/06/27 07:20:30;;;;;;;9.18;1.30;;;15.70;99.50;;;;;;5058056;28;20402;-68
2022/06/27 07:22:56;;;;;;;7.72;1.40;;;15.70;99.20;;;;;;5044176;28;20017;-68
2022/06/27 07:25:22;;;;;;;6.22;0.93;;;15.70;99.10;;;;;;5043768;28;20189;-67
2022/06/27 07:27:51;;;;;;;3.38;0.80;;;15.70;98.90;;;;;;5043761;28;20068;-66
2022/06/27 07:30:19;;;;;;;5.78;0.73;;;15.80;99.10;;;;;;5043982;28;20089;-68
2022/06/27 07:32:48;;;;;;;3.65;0.70;;;15.90;98.80;;;;;;5044432;28;20247;-64
2022/06/27 07:35:16;;;;;;;8.50;1.00;;;16.00;98.50;;;;;;5059303;28;20048;-68
2022/06/27 07:37:45;;;;;;;10.32;1.65;;;16.10;98.20;;;;;;5043584;28;20057;-65
2022/06/27 07:40:12;;;;;;;8.02;0.80;;;16.10;98.00;;;;;;5044201;28;20041;-66
2022/06/27 07:42:38;;;;;;;5.60;1.10;;;16.10;97.90;;;;;;5024333;28;20025;-65
2022/06/27 07:45:06;;;;;;;7.50;0.88;;;16.10;98.20;;;;;;5027905;28;20029;-66
2022/06/27 07:47:32;;;;;;;4.47;0.82;;;16.10;98.00;;;;;;5043008;28;20017;-66
2022/06/27 07:49:58;;;;;;;7.25;1.08;;;16.10;97.60;;;;;;5043958;28;20056;-64
2022/06/27 07:52:24;;;;;;;3.20;0.60;;;15.90;98.10;;;;;;5043351;28;20029;-64
2022/06/27 07:54:51;;;;;;;4.50;0.65;;;15.80;98.70;;;;;;5041833;28;20041;-66
2022/06/27 07:57:19;;;;;;;1.38;0.63;;;15.60;99.60;;;;;;5043771;28;20029;-66
2022/06/27 07:59:45;;;;;;;2.83;0.70;;;15.40;99.90;;;;;;5075653;28;20017;-66
2022/06/27 08:02:10;;;;;;;2.88;0.65;;;15.40;99.40;;;;;;5044236;28;20071;-65
2022/06/27 08:04:37;;;;;;;4.78;1.10;;;15.40;99.40;;;;;;5043866;28;20079;-65
2022/06/27 08:07:04;;;;;;;2.08;0.90;;;15.50;99.40;;;;;;5043971;28;20017;-65
2022/06/27 08:09:32;;;;;;;3.50;1.15;;;15.70;98.80;;;;;;5043730;28;20052;-67
2022/06/27 08:12:00;;;;;;;4.45;1.17;;;15.80;99.00;;;;;;5044153;28;20029;-66
2022/06/27 08:14:26;;;;;;;5.43;1.05;;;15.80;99.00;;;;;;5044535;28;20029;-69
2022/06/27 08:16:52;;;;;;;3.63;0.90;;;15.80;98.80;;;;;;5043714;28;20021;-68
2022/06/27 08:19:23;;;;;;;3.90;1.30;;;15.90;99.30;;;;;;5077198;28;20013;-67
2022/06/27 08:21:49;;;;;;;4.65;1.30;;;16.10;99.70;;;;;;5063434;28;20128;-67
2022/06/27 08:24:18;;;;;;;4.72;1.20;;;16.30;99.50;;;;;;5054872;28;20041;-68
2022/06/27 08:26:46;;;;;;;5.13;1.40;;;16.40;99.40;;;;;;5055283;28;20021;-67
2022/06/27 08:29:12;;;;;;;5.63;1.35;;;16.60;99.70;;;;;;5067809;28;20061;-68
2022/06/27 08:31:39;;;;;;;7.30;1.60;;;16.70;99.60;;;;;;5063968;28;20040;-68
2022/06/27 08:34:06;;;;;;;5.13;1.20;;;16.70;98.60;;;;;;5046291;28;20005;-68
2022/06/27 08:36:33;;;;;;;7.47;1.30;;;16.70;99.20;;;;;;5055346;28;20025;-67
2022/06/27 08:39:01;;;;;;;3.72;0.88;;;16.70;99.00;;;;;;5069622;28;20033;-67
2022/06/27 08:41:27;;;;;;;4.80;1.30;;;16.70;98.30;;;;;;5049453;28;20029;-67
2022/06/27 08:44:00;;;;;;;4.50;1.30;;;16.80;97.80;;;;;;5042715;28;20233;-68
2022/06/27 08:46:30;;;;;;;7.70;1.17;;;16.80;97.60;;;;;;5041706;28;20297;-69
2022/06/27 08:48:57;;;;;;;6.47;1.35;;;16.90;97.20;;;;;;5042855;28;20081;-69
2022/06/27 08:51:24;;;;;;;8.50;1.30;;;16.90;97.20;;;;;;5041299;28;20402;-68
2022/06/27 08:53:52;;;;;;;3.55;1.08;;;17.00;96.50;;;;;;5041957;28;20038;-69
2022/06/27 08:56:17;;;;;;;9.57;1.35;;;16.90;95.80;;;;;;5040623;28;20040;-69
2022/06/27 08:58:46;;;;;;;4.65;1.00;;;16.70;95.60;;;;;;5043134;28;20025;-70
2022/06/27 09:01:16;;;;;;;8.50;1.13;;;16.50;95.70;;;;;;5042320;28;20048;-70
2022/06/27 09:04:06;;;;;;;6.47;1.65;;;16.40;96.30;;;;;;5041501;28;20028;-70
2022/06/27 09:06:55;;;;;;;10.45;1.45;;;16.30;96.70;;;;;;5042790;28;20251;-70
2022/06/27 09:09:24;;;;;;;4.90;1.20;;;16.30;97.00;;;;;;5041887;28;20014;-70
2022/06/27 09:11:50;;;;;;;5.68;1.15;;;16.40;96.30;;;;;;5041818;28;20320;-68
2022/06/27 09:14:39;;;;;;;7.22;1.80;;;16.50;96.50;;;;;;5043666;28;20020;-69
2022/06/27 09:17:12;;;;;;;8.77;1.60;;;16.70;95.90;;;;;;5046848;28;20064;-66
2022/06/27 09:19:56;;;;;;;5.88;1.40;;;17.00;95.10;;;;;;5042362;28;20017;-71
2022/06/27 09:22:24;;;;;;;4.70;0.88;;;17.00;93.10;;;;;;5044980;28;20036;-69
2022/06/27 09:25:13;;;;;;;8.07;1.85;;;17.00;93.70;;;;;;5045739;28;20080;-72
2022/06/27 09:27:51;;;;;;;5.13;1.20;;;17.20;92.80;;;;;;5046086;28;20052;-68
2022/06/27 09:30:25;;;;;;;6.05;1.42;;;17.40;92.10;;;;;;5046304;28;20017;-69
2022/06/27 09:32:58;;;;;;;7.95;1.65;;;17.60;91.60;;;;;;5045677;28;20092;-68
2022/06/27 09:35:34;;;;;;;13.15;1.60;;;17.70;91.30;;;;;;5046293;28;20059;-68
2022/06/27 09:38:02;;;;;;;8.00;1.40;;;17.80;90.10;;;;;;5045787;28;20033;-69
2022/06/27 09:40:33;;;;;;;7.18;1.80;;;17.80;90.70;;;;;;5046122;28;20045;-65
2022/06/27 09:43:01;;;;;;;5.22;1.70;;;17.80;90.00;;;;;;5044814;28;20018;-67
2022/06/27 09:45:29;;;;;;;9.77;1.83;;;17.90;90.00;;;;;;5045830;28;20021;-67
2022/06/27 09:47:58;;;;;;;5.18;1.40;;;17.90;89.30;;;;;;5061132;28;20091;-69
2022/06/27 09:50:29;;;;;;;9.20;1.50;;;17.90;87.00;;;;;;5061095;28;20263;-68
2022/06/27 09:53:02;;;;;;;5.55;1.13;;;17.80;86.60;;;;;;5046279;28;20029;-67
2022/06/27 09:55:31;;;;;;;7.28;1.40;;;17.80;87.10;;;;;;5045872;28;20087;-67
2022/06/27 09:57:59;;;;;;;4.20;1.45;;;17.60;87.70;;;;;;5043557;28;20272;-67
2022/06/27 10:00:25;;;;;;;6.40;1.38;;;17.60;87.50;;;;;;5045835;28;20018;-68
2022/06/27 10:02:51;;;;;;;14.13;1.75;;;17.60;87.00;;;;;;5045338;28;20021;-71
2022/06/27 10:05:19;;;;;;;7.03;1.40;;;17.50;88.50;;;;;;5077749;28;20033;-67
2022/06/27 10:08:04;;;;;;;5.72;1.10;;;17.60;89.30;;;;;;5045093;28;20021;-68
2022/06/27 10:10:51;;;;;;;6.68;1.00;;;17.80;88.70;;;;;;5026260;28;20230;-67
2022/06/27 10:13:20;;;;;;;4.70;1.40;;;17.80;89.20;;;;;;5039890;28;20036;-68
2022/06/27 10:15:49;;;;;;;5.28;1.02;;;18.00;88.80;;;;;;5060314;28;20017;-68
2022/06/27 10:18:18;;;;;;;11.35;1.50;;;18.20;88.70;;;;;;5043907;28;20025;-67
2022/06/27 10:20:47;;;;;;;8.93;1.60;;;18.30;87.80;;;;;;5060320;28;20044;-69
2022/06/27 10:23:26;;;;;;;6.53;1.65;;;18.50;87.80;;;;;;5045261;28;20044;-68
2022/06/27 10:25:53;;;;;;;7.05;1.08;;;18.60;84.60;;;;;;5043861;28;20047;-69
2022/06/27 10:28:22;;;;;;;5.72;1.35;;;18.80;83.60;;;;;;5060134;28;20025;-70
2022/06/27 10:31:02;;;;;;;6.75;1.20;;;19.00;82.60;;;;;;5059648;28;20074;-69
2022/06/27 10:33:39;;;;;;;7.95;1.10;;;18.90;82.20;;;;;;5045148;28;20029;-67
2022/06/27 10:36:14;;;;;;;10.15;1.25;;;18.80;81.00;;;;;;5045071;28;20025;-69
2022/06/27 10:38:53;;;;;;;7.22;1.20;;;18.60;82.10;;;;;;5043343;28;20025;-67
2022/06/27 10:41:39;;;;;;;4.30;1.25;;;18.50;81.90;;;;;;5045092;28;20095;-68
2022/06/27 10:44:25;;;;;;;4.93;0.88;;;18.60;79.60;;;;;;5043660;28;20017;-69
2022/06/27 10:46:51;;;;;;;6.28;0.93;;;18.50;78.50;;;;;;5042960;28;20029;-70
2022/06/27 10:49:18;;;;;;;5.90;1.10;;;18.40;80.10;;;;;;5043961;28;20106;-69
2022/06/27 10:51:44;;;;;;;5.22;0.80;;;18.50;80.10;;;;;;5043823;28;20229;-68
2022/06/27 10:54:11;;;;;;;9.57;1.20;;;18.50;77.50;;;;;;5044257;28;20029;-68
2022/06/27 10:56:43;;;;;;;6.32;1.10;;;18.40;78.30;;;;;;5044048;28;20093;-69
2022/06/27 10:59:48;;;;;;;10.25;1.45;;;18.50;78.10;;;;;;5041210;28;20033;-70
2022/06/27 11:02:22;;;;;;;9.63;1.00;;;18.80;79.30;;;;;;5054487;28;20048;-69
2022/06/27 11:04:48;;;;;;;7.70;1.48;;;19.10;80.40;;;;;;5042933;28;20088;-68
2022/06/27 11:07:18;;;;;;;5.93;1.38;;;19.10;80.40;;;;;;5044921;28;20075;-68
2022/06/27 11:09:47;;;;;;;4.20;1.10;;;19.10;80.00;;;;;;5043107;28;20021;-69
2022/06/27 11:12:16;;;;;;;7.57;1.98;;;19.20;79.90;;;;;;5044053;28;20092;-69
2022/06/27 11:14:54;;;;;;;7.07;1.10;;;19.20;80.10;;;;;;5059745;28;20324;-69
2022/06/27 11:17:41;;;;;;;9.88;1.40;;;19.30;79.40;;;;;;5059302;28;20017;-68
2022/06/27 11:20:20;;;;;;;9.80;1.30;;;19.50;78.30;;;;;;5056594;28;20025;-68
2022/06/27 11:22:52;;;;;;;4.45;1.17;;;19.40;77.30;;;;;;5042943;28;20415;-68
2022/06/27 11:25:21;;;;;;;15.07;1.50;;;19.30;76.70;;;;;;5059847;28;20075;-68
2022/06/27 11:27:53;;;;;;;8.32;1.50;;;19.40;77.90;;;;;;5044233;28;20285;-69
2022/06/27 11:33:18;;;;;;;7.35;1.67;;;19.60;77.00;;;;;;5042616;28;20036;-67
2022/06/27 11:35:46;;;;;;;11.23;1.33;;;19.50;77.70;;;;;;5042540;28;20025;-68
2022/06/27 11:38:12;;;;;;;7.70;1.23;;;19.60;75.80;;;;;;5042154;28;20025;-68
2022/06/27 11:40:40;;;;;;;6.32;1.50;;;19.60;75.60;;;;;;5043709;28;20017;-69
2022/06/27 11:43:08;;;;;;;7.07;1.30;;;19.70;76.70;;;;;;5042909;28;20300;-68
2022/06/27 11:45:41;;;;;;;12.25;1.60;;;19.80;77.50;;;;;;5042230;28;20021;-68
2022/06/27 11:48:16;;;;;;;9.98;2.17;;;19.50;78.40;;;;;;5043562;28;20056;-69
2022/06/27 11:50:42;;;;;;;13.52;1.80;;;19.50;77.60;;;;;;5057287;28;20421;-70
2022/06/27 11:53:11;;;;;;;6.38;1.00;;;19.40;77.10;;;;;;5041911;28;20099;-69
2022/06/27 11:55:37;;;;;;;11.18;1.90;;;19.50;77.60;;;;;;5042252;28;20204;-72
2022/06/27 11:58:03;;;;;;;4.70;1.20;;;19.20;76.30;;;;;;5057935;28;20080;-68
2022/06/27 12:00:33;;;;;;;12.20;1.10;;;19.10;76.90;;;;;;5074109;28;20029;-68
2022/06/27 12:03:09;;;;;;;8.40;1.30;;;19.20;75.10;;;;;;5042762;28;20316;-69
2022/06/27 12:05:39;;;;;;;8.90;1.40;;;19.10;74.30;;;;;;5057651;28;20020;-68
2022/06/27 12:08:07;;;;;;;8.45;1.27;;;18.80;75.50;;;;;;5043450;28;20021;-70
2022/06/27 12:10:41;;;;;;;7.18;1.40;;;18.80;77.00;;;;;;5041503;28;20103;-69
2022/06/27 12:13:10;;;;;;;10.13;1.17;;;19.00;73.80;;;;;;5040897;28;20064;-69
2022/06/27 12:15:37;;;;;;;9.45;1.30;;;18.90;72.70;;;;;;5057212;28;20318;-69
2022/06/27 12:18:04;;;;;;;4.47;0.93;;;18.90;71.30;;;;;;5025595;28;20109;-68
2022/06/27 12:20:32;;;;;;;6.22;1.02;;;18.90;70.50;;;;;;5040917;28;20101;-69
2022/06/27 12:22:58;;;;;;;5.75;0.85;;;18.90;71.40;;;;;;5042274;28;20033;-72
2022/06/27 12:25:24;;;;;;;9.20;0.90;;;19.00;67.00;;;;;;5041776;28;20039;-69
2022/06/27 12:27:50;;;;;;;4.70;0.93;;;18.90;69.20;;;;;;5058294;28;20029;-71
2022/06/27 12:30:17;;;;;;;5.18;0.77;;;19.00;69.60;;;;;;5041175;28;20029;-69
2022/06/27 12:32:43;;;;;;;7.05;0.85;;;18.90;67.20;;;;;;5042867;28;20067;-68
2022/06/27 12:35:10;;;;;;;3.85;0.85;;;18.60;65.70;;;;;;5042312;28;20041;-70
2022/06/27 12:37:39;;;;;;;4.38;0.93;;;18.30;66.10;;;;;;5042664;28;20025;-67
2022/06/27 12:40:10;;;;;;;7.03;0.90;;;18.30;65.40;;;;;;5042392;28;20024;-70
2022/06/27 12:42:38;;;;;;;4.87;0.83;;;18.30;67.20;;;;;;5041492;28;20030;-69
2022/06/27 12:45:05;;;;;;;7.15;1.05;;;18.40;69.50;;;;;;5040873;28;20021;-70
2022/06/27 12:47:30;;;;;;;6.15;0.80;;;18.40;67.00;;;;;;5056861;28;20328;-68
2022/06/27 12:49:56;;;;;;;6.57;1.00;;;18.60;65.90;;;;;;5041217;28;20045;-69
2022/06/27 12:52:25;;;;;;;4.93;1.05;;;18.60;66.50;;;;;;5041482;28;20275;-69
2022/06/27 12:54:54;;;;;;;6.22;0.75;;;18.70;67.40;;;;;;5060940;28;20048;-69